Frick, Switzerland

07:08 AM CET am 24. März 2017 (GMT +0100)
Basle-Mulhouse | | Change Station

Höhe 889 ft 47.60 °N, 7.52 °E | Updated 8 minutes ago

Wolkig
Wolkig
48 °F
gefühlte 48 °F
N
7
Wind Wechselnd Wind aus Nord

Heute
Max. -- | schwach -- °F
--% Regenrisiko
Gestern
Max. -- | schwach -- °F
Precip. -- inch
Druck 30.09 inch
Sichtweite 6.2 Meilen
Wolken Wolkig 1800 ft
Taupunkt 45 °F
Feuchtigkeit 87%
Regen 0.00 inch
Schneehöhe Nicht verfügbar..
6:22 AM 6:46 PM
Letztes Viertel, 17% visible
METAR LFSB 240600Z 36006KT 320V020 9999 BKN018 09/07 Q1019 TEMPO BKN014
Druck 30.09 inch
Sichtweite 6.2 Meilen
Wolken Wolkig 1800 ft
Taupunkt 45 °F
Feuchtigkeit 87%
Regen 0.00 inch
Schneehöhe Nicht verfügbar..
6:22 AM 6:46 PM
Letztes Viertel, 17% visible
METAR LFSB 240600Z 36006KT 320V020 9999 BKN018 09/07 Q1019 TEMPO BKN014

Get Severe Weather Alerts

Thanks for signing up!

Be on the lookout for a verification email in your inbox.

You'll start receiving the daily forecast at 8 AM.

×

10-Day Weather Forecast

×

Almanac

Astronomie

Mar. 24, 2017 Aufgang Untergang
Genaue Zeit
Bürgerliche Dämmerung
Nautische Dämmerung
Astronomische Dämmerung
Mond
Länge des sichtbaren Lichts
Tageslänge
Tomorrow will be .
, % of the Moon is Illuminated

Heutige Rekorde

Country Highs Country Lows

Community

WunderPhotos

Upload Photos

1,962,540 Fotos hochgeladen!

WunderBlog® & News

Nearby

Luftqualität

  Luftqualität LQ Index Schadstoff
Not available.

Schneehöhe

Station Depth Höhe

Erdbebenaktivität

Stadt Distance Mag. Time & Date
Minimum magnitude displayed is 2.5.

Erdbebenaktivität

Stadt Distance Mag. Time & Date
Minimum magnitude displayed is 2.5.

küstennahe Wassertemperaturen

Ort Temperatur

Stations

Wetterstationen in der Umgebung

Stationsstandort Temp. Windchill Taupunkt Feuchtigkeit Wind Precip. Höhe Aktualisiert Art